Time;durP1;ratioP1;P1;durP2;ratioP2;P2;SDS_P1;SDS_P2;PMS_P1;PMS_P2;Temp;Humidity;BMP_temperature;BMP_pressure;BME280_temperature;BME280_humidity;BME280_pressure;Samples;Min_cycle;Max_cycle;Signal;HPM_P1;HPM_P2
2021/05/04 00:02:27;;;;;;;4.60;3.08;;;;;;;8.72;52.81;100297.87;4485859;31;34354;-88
2021/05/04 00:04:55;;;;;;;4.82;3.15;;;;;;;8.71;53.03;100300.56;4481271;31;34388;-87
2021/05/04 00:07:22;;;;;;;6.40;3.30;;;;;;;8.70;52.97;100298.84;4483410;31;33205;-87
2021/05/04 00:09:50;;;;;;;6.03;3.70;;;;;;;8.68;52.86;100290.97;4483504;31;33783;-87
2021/05/04 00:12:17;;;;;;;5.85;3.35;;;;;;;8.51;53.53;100298.50;4498692;31;33838;-86
2021/05/04 00:14:45;;;;;;;6.47;4.22;;;;;;;8.61;53.26;100297.31;4484297;31;33730;-87
2021/05/04 00:17:12;;;;;;;6.18;3.75;;;;;;;8.65;53.05;100298.13;4470786;31;35073;-86
2021/05/04 00:19:40;;;;;;;5.20;3.10;;;;;;;8.64;53.37;100299.88;4476843;31;35452;-88
2021/05/04 00:22:08;;;;;;;4.65;3.03;;;;;;;8.78;52.83;100296.84;4484284;31;32841;-87
2021/05/04 00:24:35;;;;;;;6.07;3.62;;;;;;;8.65;53.09;100298.97;4485664;31;34477;-87
2021/05/04 00:27:03;;;;;;;6.03;3.83;;;;;;;8.52;53.84;100294.94;4484374;31;33347;-87
2021/05/04 00:29:30;;;;;;;5.37;3.10;;;;;;;8.53;53.58;100301.94;4484828;31;33268;-87
2021/05/04 00:31:57;;;;;;;5.78;3.25;;;;;;;8.57;53.45;100298.31;4467673;31;33516;-86
2021/05/04 00:34:25;;;;;;;6.05;3.42;;;;;;;8.62;53.20;100290.28;4489145;31;34745;-86
2021/05/04 00:36:52;;;;;;;4.20;3.15;;;;;;;8.64;53.09;100286.72;4479664;31;34368;-87
2021/05/04 00:39:20;;;;;;;4.05;3.00;;;;;;;8.52;53.46;100294.09;4453428;32;34000;-87
2021/05/04 00:41:48;;;;;;;5.78;3.30;;;;;;;8.52;53.33;100288.81;4460438;31;34638;-88
2021/05/04 00:44:15;;;;;;;5.53;3.22;;;;;;;8.29;54.28;100279.75;4472184;31;34732;-88
2021/05/04 00:46:43;;;;;;;3.85;2.70;;;;;;;8.56;53.29;100286.06;4474781;31;33481;-88
2021/05/04 00:49:11;;;;;;;4.78;3.25;;;;;;;8.43;53.48;100285.53;4478321;31;33216;-88
2021/05/04 00:51:38;;;;;;;6.00;3.50;;;;;;;8.44;53.48;100286.38;4484595;31;34850;-88
2021/05/04 00:54:07;;;;;;;4.97;3.03;;;;;;;8.39;53.88;100273.34;4463657;31;33580;-87
2021/05/04 00:56:35;;;;;;;3.35;2.60;;;;;;;8.35;53.84;100276.94;4477298;31;34446;-87
2021/05/04 00:59:03;;;;;;;4.20;3.17;;;;;;;8.36;53.71;100273.47;4472092;31;33540;-86
2021/05/04 01:01:30;;;;;;;4.93;2.83;;;;;;;8.19;54.68;100270.38;4463726;32;35421;-87
2021/05/04 01:03:58;;;;;;;3.03;2.72;;;;;;;8.12;55.11;100274.09;4489091;31;33778;-87
2021/05/04 01:06:25;;;;;;;4.87;2.67;;;;;;;7.95;55.47;100272.72;4485880;31;34440;-87
2021/05/04 01:08:52;;;;;;;4.72;3.30;;;;;;;8.10;55.12;100271.47;4485868;31;33747;-87
2021/05/04 01:11:20;;;;;;;3.70;2.70;;;;;;;8.13;54.76;100275.81;4474274;31;33714;-87
2021/05/04 01:13:49;;;;;;;5.12;3.15;;;;;;;7.96;55.19;100271.81;4479460;31;34662;-87
2021/05/04 01:16:16;;;;;;;4.85;3.65;;;;;;;7.69;56.57;100269.88;4480226;31;34494;-87
2021/05/04 01:18:44;;;;;;;8.35;3.58;;;;;;;7.77;56.45;100273.19;4479397;31;34042;-87
2021/05/04 01:21:11;;;;;;;4.78;3.00;;;;;;;7.93;55.83;100273.69;4464954;31;33814;-87
2021/05/04 01:23:38;;;;;;;4.78;3.47;;;;;;;7.96;55.76;100278.84;4470664;31;34543;-87
2021/05/04 01:26:05;;;;;;;6.07;3.12;;;;;;;7.95;55.73;100275.38;4470916;31;33487;-87
2021/05/04 01:28:33;;;;;;;5.80;3.35;;;;;;;7.97;55.44;100275.31;4481941;31;35079;-87
2021/05/04 01:31:00;;;;;;;5.43;3.83;;;;;;;8.03;55.13;100280.44;4475033;31;33638;-87
2021/05/04 01:33:28;;;;;;;6.72;4.37;;;;;;;7.99;54.84;100277.94;4468081;31;35719;-87
2021/05/04 01:35:55;;;;;;;6.18;3.55;;;;;;;7.99;54.81;100273.53;4462965;32;34398;-87
2021/05/04 01:38:22;;;;;;;5.28;3.75;;;;;;;8.05;54.76;100267.25;4464338;31;33566;-87
2021/05/04 01:40:50;;;;;;;4.45;3.53;;;;;;;7.78;56.11;100269.66;4466360;31;35626;-87
2021/05/04 01:43:17;;;;;;;7.15;3.60;;;;;;;7.65;56.82;100263.00;4496551;31;33827;-86
2021/05/04 01:45:44;;;;;;;5.57;3.67;;;;;;;7.80;56.39;100262.59;4482298;31;33643;-86
2021/05/04 01:48:12;;;;;;;7.05;3.90;;;;;;;7.69;56.64;100264.63;4475711;31;35036;-86
2021/05/04 01:50:39;;;;;;;4.30;3.28;;;;;;;7.55;57.00;100257.09;4477877;31;33888;-86
2021/05/04 01:53:06;;;;;;;5.45;3.12;;;;;;;7.61;56.88;100250.81;4489686;31;34713;-86
2021/05/04 01:55:34;;;;;;;4.97;3.47;;;;;;;7.75;56.31;100248.72;4477257;31;33666;-86
2021/05/04 01:58:02;;;;;;;6.00;3.40;;;;;;;7.68;56.17;100239.25;4467583;31;33956;-87
2021/05/04 02:00:29;;;;;;;4.55;3.40;;;;;;;7.78;56.12;100243.34;4468122;31;34539;-87
2021/05/04 02:02:57;;;;;;;4.75;3.47;;;;;;;7.94;55.39;100233.34;4465947;31;33917;-87
2021/05/04 02:05:24;;;;;;;4.35;3.08;;;;;;;7.96;55.02;100232.38;4481459;31;33668;-87
2021/05/04 02:07:51;;;;;;;5.15;4.00;;;;;;;7.82;55.81;100241.53;4489653;31;33883;-87
2021/05/04 02:10:19;;;;;;;4.72;3.47;;;;;;;7.66;56.00;100233.16;4467217;31;33331;-87
2021/05/04 02:12:46;;;;;;;5.78;3.58;;;;;;;7.73;55.90;100234.72;4467357;31;34355;-87
2021/05/04 02:15:13;;;;;;;3.60;2.85;;;;;;;7.79;55.53;100237.22;4460211;32;34089;-87
2021/05/04 02:17:41;;;;;;;4.32;3.20;;;;;;;7.80;55.66;100233.69;4461595;31;32804;-86
2021/05/04 02:20:10;;;;;;;5.53;3.67;;;;;;;7.71;56.17;100231.28;4467090;31;34577;-87
2021/05/04 02:22:38;;;;;;;4.53;3.40;;;;;;;7.45;57.07;100229.28;4481364;31;35095;-87
2021/05/04 02:25:06;;;;;;;3.72;3.08;;;;;;;7.53;56.72;100237.00;4476067;31;34686;-87
2021/05/04 02:27:46;;;;;;;6.55;3.35;;;;;;;7.39;57.31;100238.19;4472363;31;33657;-87
2021/05/04 02:30:14;;;;;;;4.18;3.30;;;;;;;7.36;56.98;100240.91;4466558;31;34457;-87
2021/05/04 02:32:41;;;;;;;5.12;4.30;;;;;;;7.33;57.06;100234.84;4480651;31;33125;-87
2021/05/04 02:35:09;;;;;;;5.05;4.00;;;;;;;7.48;56.48;100233.63;4476239;31;34152;-87
2021/05/04 02:37:36;;;;;;;3.67;3.10;;;;;;;7.38;56.95;100231.22;4486330;31;33083;-87
2021/05/04 02:40:05;;;;;;;4.65;3.62;;;;;;;7.11;58.26;100234.47;4474349;31;33333;-87
2021/05/04 02:42:32;;;;;;;6.32;3.50;;;;;;;7.34;57.34;100232.19;4484863;31;34762;-87
2021/05/04 02:44:59;;;;;;;8.23;3.47;;;;;;;7.37;56.95;100236.50;4493989;31;33580;-86
2021/05/04 02:47:27;;;;;;;6.03;3.42;;;;;;;7.38;56.96;100231.22;4471404;32;32374;-86
2021/05/04 02:49:54;;;;;;;4.35;3.72;;;;;;;7.41;57.01;100233.78;4480981;31;33600;-86
2021/05/04 02:52:21;;;;;;;4.95;4.05;;;;;;;7.47;56.74;100226.66;4465544;31;34086;-86
2021/05/04 02:54:48;;;;;;;4.12;3.72;;;;;;;7.46;56.75;100232.81;4468052;31;34596;-86
2021/05/04 02:57:17;;;;;;;10.13;4.20;;;;;;;7.31;56.86;100229.66;4486872;31;32796;-86
2021/05/04 02:59:45;;;;;;;4.93;3.67;;;;;;;7.29;56.96;100234.06;4465360;31;34472;-86
2021/05/04 03:02:13;;;;;;;4.32;3.62;;;;;;;7.23;57.72;100231.56;4473661;31;33445;-86
2021/05/04 03:04:40;;;;;;;6.22;3.45;;;;;;;7.16;57.27;100217.69;4478405;31;33560;-86
2021/05/04 03:07:08;;;;;;;6.18;3.70;;;;;;;7.31;56.87;100223.50;4472689;31;34059;-87
2021/05/04 03:09:37;;;;;;;6.37;4.07;;;;;;;7.35;56.89;100217.28;4485306;31;35573;-87
2021/05/04 03:12:05;;;;;;;5.03;3.70;;;;;;;7.19;57.63;100216.78;4473521;31;33960;-86
2021/05/04 03:14:32;;;;;;;5.07;3.75;;;;;;;7.18;58.09;100217.69;4477778;31;33327;-86
2021/05/04 03:16:59;;;;;;;6.62;3.28;;;;;;;7.07;58.55;100206.53;4482149;31;33667;-86
2021/05/04 03:19:27;;;;;;;6.65;4.20;;;;;;;7.01;58.71;100211.94;4470507;31;34496;-86
2021/05/04 03:21:54;;;;;;;5.78;3.08;;;;;;;7.30;57.67;100212.12;4484563;31;33586;-86
2021/05/04 03:24:22;;;;;;;4.55;3.45;;;;;;;7.22;57.55;100206.22;4479912;31;32494;-86
2021/05/04 03:26:49;;;;;;;5.30;3.05;;;;;;;7.14;57.62;100214.25;4476380;31;33242;-86
2021/05/04 03:29:16;;;;;;;5.60;3.37;;;;;;;7.15;57.56;100202.00;4482268;31;35559;-86
2021/05/04 03:32:03;;;;;;;5.25;3.80;;;;;;;7.21;57.79;100204.47;4470439;31;33753;-86
2021/05/04 03:34:30;;;;;;;4.95;4.37;;;;;;;7.13;58.00;100196.78;4475579;31;32902;-86
2021/05/04 03:36:58;;;;;;;5.22;3.97;;;;;;;7.26;57.37;100199.97;4468486;31;33430;-86
2021/05/04 03:39:25;;;;;;;5.32;4.25;;;;;;;7.14;58.27;100208.16;4470417;31;34082;-86
2021/05/04 03:41:52;;;;;;;6.03;3.95;;;;;;;7.00;58.63;100215.47;4465685;31;35563;-86
2021/05/04 03:44:20;;;;;;;11.48;4.43;;;;;;;7.10;58.43;100211.75;4453125;31;34963;-86
2021/05/04 03:46:47;;;;;;;7.68;3.70;;;;;;;6.98;58.51;100212.00;4460210;32;34903;-88
2021/05/04 03:49:14;;;;;;;11.38;4.25;;;;;;;6.99;58.97;100208.50;4477864;31;33240;-89
2021/05/04 03:51:42;;;;;;;5.28;4.03;;;;;;;6.78;59.90;100209.81;4466351;31;34987;-89
2021/05/04 03:54:10;;;;;;;5.80;3.62;;;;;;;6.77;60.55;100202.84;4464621;31;32881;-89
2021/05/04 03:56:37;;;;;;;6.62;3.78;;;;;;;6.81;60.02;100209.78;4475092;31;33789;-89
2021/05/04 03:59:04;;;;;;;7.32;4.03;;;;;;;6.90;59.83;100210.44;4471322;31;35321;-89
2021/05/04 04:01:32;;;;;;;7.95;4.10;;;;;;;7.10;59.23;100207.34;4484608;31;34445;-88
2021/05/04 04:04:00;;;;;;;7.47;4.37;;;;;;;7.29;58.72;100202.53;4449896;31;35333;-88
2021/05/04 04:06:27;;;;;;;7.22;3.80;;;;;;;7.57;57.49;100201.88;4471395;31;33601;-88
2021/05/04 04:08:54;;;;;;;4.50;3.60;;;;;;;7.62;57.24;100198.22;4486264;31;35088;-88
2021/05/04 04:11:22;;;;;;;5.57;3.85;;;;;;;7.64;57.42;100190.28;4469963;31;33537;-88
2021/05/04 04:13:49;;;;;;;7.05;4.82;;;;;;;7.61;57.31;100188.59;4470709;31;33051;-88
2021/05/04 04:16:16;;;;;;;6.10;5.05;;;;;;;7.46;58.55;100182.87;4480801;31;33625;-88
2021/05/04 04:18:44;;;;;;;6.12;3.83;;;;;;;7.46;59.54;100186.37;4474624;31;35406;-88
2021/05/04 04:21:11;;;;;;;6.75;4.87;;;;;;;7.82;58.06;100181.91;4471900;31;33718;-88
2021/05/04 04:23:38;;;;;;;5.30;4.30;;;;;;;8.01;57.17;100182.28;4469633;32;33404;-88
2021/05/04 04:26:06;;;;;;;9.18;6.05;;;;;;;8.02;57.25;100189.28;4487193;31;34124;-88
2021/05/04 04:28:33;;;;;;;6.87;5.45;;;;;;;8.33;57.29;100178.78;4467627;31;35172;-89
2021/05/04 04:31:00;;;;;;;9.88;5.25;;;;;;;8.11;57.91;100182.91;4466550;31;34557;-89
2021/05/04 04:33:28;;;;;;;12.68;5.75;;;;;;;8.24;57.52;100181.66;4470750;31;33566;-88
2021/05/04 04:35:56;;;;;;;6.30;5.30;;;;;;;8.46;56.23;100181.97;4471180;31;33231;-88
2021/05/04 04:42:48;;;;;;;8.48;6.25;;;;;;;8.58;56.27;100188.63;4327452;33;34639;-87
2021/05/04 04:45:30;;;;;;;14.20;7.37;;;;;;;8.75;56.52;100183.72;4350281;32;34220;-88
2021/05/04 04:47:57;;;;;;;11.35;7.65;;;;;;;9.04;55.48;100176.72;4337061;32;34744;-88
2021/05/04 04:50:25;;;;;;;12.60;7.15;;;;;;;9.32;54.76;100172.28;4352251;32;34287;-88
2021/05/04 04:52:52;;;;;;;9.48;6.68;;;;;;;9.15;55.17;100174.59;4348662;32;34326;-88
2021/05/04 04:55:20;;;;;;;11.82;6.55;;;;;;;9.36;55.38;100171.28;4350537;32;33689;-89
2021/05/04 04:57:47;;;;;;;10.18;6.53;;;;;;;9.72;54.20;100160.38;4346917;32;34584;-87
2021/05/04 05:00:26;;;;;;;10.02;6.03;;;;;;;10.60;51.99;100152.84;4516099;31;150675;-87
2021/05/04 05:02:54;;;;;;;7.75;6.40;;;;;;;10.60;51.99;100152.84;4473919;32;32263;-88
2021/05/04 05:05:22;;;;;;;9.40;6.20;;;;;;;10.06;53.15;100153.94;4466955;31;34685;-88
2021/05/04 05:07:49;;;;;;;7.00;5.78;;;;;;;10.08;52.76;100154.75;4477136;31;33829;-88
2021/05/04 05:10:16;;;;;;;11.05;6.50;;;;;;;10.05;52.73;100155.72;4474746;31;34471;-86
2021/05/04 05:12:59;;;;;;;;;;;;;;;10.16;52.88;100157.94;4478783;31;33192;-87
2021/05/04 05:15:28;;;;;;;7.68;6.15;;;;;;;10.28;53.40;100152.28;4488179;31;32379;-87
2021/05/04 05:17:55;;;;;;;8.57;6.00;;;;;;;10.39;52.64;100150.09;4494029;31;34832;-86
2021/05/04 05:20:23;;;;;;;8.38;6.22;;;;;;;10.66;52.08;100152.59;4497599;31;33250;-87
2021/05/04 05:22:51;;;;;;;9.18;6.43;;;;;;;10.75;52.40;100144.34;4500534;31;33210;-87
2021/05/04 05:25:18;;;;;;;10.90;6.35;;;;;;;10.98;51.84;100143.44;4480214;31;33187;-88
2021/05/04 05:27:45;;;;;;;13.50;6.53;;;;;;;10.74;52.96;100150.53;4464707;31;33078;-88
2021/05/04 05:30:12;;;;;;;11.95;5.53;;;;;;;10.48;53.67;100146.25;4492781;31;33421;-88
2021/05/04 05:32:40;;;;;;;8.00;5.95;;;;;;;11.13;51.32;100128.75;4481954;31;34122;-89
2021/05/04 05:35:09;;;;;;;10.52;5.72;;;;;;;11.06;52.35;100137.81;4495739;31;33712;-88
2021/05/04 05:37:37;;;;;;;11.45;5.40;;;;;;;11.10;52.54;100132.34;4467121;31;33413;-88
2021/05/04 05:40:05;;;;;;;9.95;6.03;;;;;;;11.54;51.38;100124.38;4467074;31;33946;-88
2021/05/04 05:42:32;;;;;;;13.05;7.00;;;;;;;11.88;51.12;100121.16;4483916;31;34081;-89
2021/05/04 05:45:00;;;;;;;9.40;6.32;;;;;;;11.67;52.75;100119.41;4479903;31;33352;-89
2021/05/04 05:47:28;;;;;;;11.20;7.30;;;;;;;11.95;52.25;100117.31;4478451;31;33878;-89
2021/05/04 05:49:58;;;;;;;9.45;7.07;;;;;;;11.82;52.44;100120.53;4473703;31;33870;-88
2021/05/04 05:52:27;;;;;;;;;;;;;;;12.49;50.92;100109.59;4480909;31;32993;-88
2021/05/04 05:54:54;;;;;;;11.65;7.57;;;;;;;12.70;50.82;100110.38;4491182;31;34900;-89
2021/05/04 05:57:22;;;;;;;9.32;6.75;;;;;;;12.75;51.06;100116.31;4478389;32;34755;-87
2021/05/04 05:59:50;;;;;;;8.98;7.62;;;;;;;12.24;53.06;100115.13;4487239;31;33827;-89
2021/05/04 06:02:17;;;;;;;11.55;8.20;;;;;;;12.66;52.13;100119.38;4471621;31;34901;-89
2021/05/04 06:04:46;;;;;;;16.95;8.98;;;;;;;12.96;51.34;100117.06;4478630;31;33634;-89
2021/05/04 06:07:14;;;;;;;10.00;8.18;;;;;;;12.55;51.76;100109.31;4478070;31;34610;-89
2021/05/04 06:09:42;;;;;;;13.73;8.65;;;;;;;13.13;51.54;100105.63;4475807;31;33431;-89
2021/05/04 06:12:10;;;;;;;11.07;8.18;;;;;;;13.30;51.27;100103.06;4467892;31;33194;-88
2021/05/04 06:14:38;;;;;;;10.00;7.55;;;;;;;13.36;50.79;100092.13;4470637;31;33348;-89
2021/05/04 06:17:05;;;;;;;10.45;8.10;;;;;;;13.57;50.22;100084.84;4455140;31;34256;-87
2021/05/04 06:19:33;;;;;;;15.70;9.45;;;;;;;13.75;49.97;100089.22;4471305;31;34074;-89
2021/05/04 06:22:01;;;;;;;9.00;7.70;;;;;;;13.17;50.90;100086.84;4453679;31;34098;-90
2021/05/04 06:24:28;;;;;;;11.98;7.75;;;;;;;14.23;49.04;100079.56;4465292;31;34486;-91
2021/05/04 06:26:58;;;;;;;11.35;7.78;;;;;;;13.40;49.51;100077.78;4453501;31;34398;-90
2021/05/04 06:29:26;;;;;;;9.68;8.43;;;;;;;13.89;49.18;100072.56;4464691;31;34488;-90
2021/05/04 06:31:59;;;;;;;8.82;7.93;;;;;;;14.00;49.15;100072.84;4475467;31;33129;-90
2021/05/04 06:34:27;;;;;;;9.27;7.18;;;;;;;13.95;49.51;100068.72;4449270;31;32645;-90
2021/05/04 06:36:56;;;;;;;10.27;7.78;;;;;;;14.05;49.77;100064.63;4452169;32;33163;-91
2021/05/04 06:39:23;;;;;;;10.32;7.93;;;;;;;14.50;48.62;100066.63;4456495;31;34216;-90
2021/05/04 06:41:51;;;;;;;7.82;6.45;;;;;;;14.07;48.66;100068.09;4454225;31;35240;-91
2021/05/04 06:44:19;;;;;;;8.70;7.60;;;;;;;13.81;49.32;100072.09;4471368;31;33018;-92
2021/05/04 06:46:48;;;;;;;8.60;6.32;;;;;;;13.44;50.01;100078.50;4461128;31;35269;-91
2021/05/04 06:49:17;;;;;;;12.52;7.95;;;;;;;13.96;49.08;100070.47;4461214;31;34305;-90
2021/05/04 06:52:05;;;;;;;10.57;6.90;;;;;;;14.14;48.90;100077.41;4428015;32;32013;-90
2021/05/04 06:54:57;;;;;;;11.47;8.27;;;;;;;14.55;49.04;100069.88;4384652;32;33685;-90
2021/05/04 06:57:24;;;;;;;12.68;7.82;;;;;;;14.08;48.71;100072.44;4404750;32;34944;-93
2021/05/04 07:00:20;;;;;;;11.12;7.35;;;;;;;14.91;47.89;100062.56;4372109;32;32461;-90
2021/05/04 07:03:07;;;;;;;8.73;6.78;;;;;;;15.52;46.65;100069.59;4343880;32;34019;-92
2021/05/04 07:05:50;;;;;;;7.18;6.00;;;;;;;15.61;45.78;100066.38;4359616;32;34121;-89
2021/05/04 07:08:21;;;;;;;8.02;6.93;;;;;;;14.99;45.44;100063.81;4365216;32;34717;-90
2021/05/04 07:10:49;;;;;;;7.07;5.85;;;;;;;15.00;45.76;100060.25;4352379;32;33846;-89
2021/05/04 07:13:17;;;;;;;7.22;5.80;;;;;;;14.86;45.27;100062.84;4351589;32;32117;-90
2021/05/04 07:15:45;;;;;;;7.75;5.93;;;;;;;14.62;46.48;100067.72;4362346;32;32678;-89
2021/05/04 07:18:13;;;;;;;8.40;6.43;;;;;;;14.72;46.49;100070.75;4362650;32;34246;-90
2021/05/04 07:20:42;;;;;;;7.15;6.05;;;;;;;15.26;45.15;100065.84;4352582;32;33377;-89
2021/05/04 07:23:11;;;;;;;7.75;6.87;;;;;;;15.89;44.92;100065.59;4364110;32;34366;-90
2021/05/04 07:25:38;;;;;;;7.30;6.40;;;;;;;15.87;44.23;100064.84;4352951;32;34817;-89
2021/05/04 07:28:07;;;;;;;6.45;5.75;;;;;;;16.34;44.77;100061.03;4354288;32;34933;-89
2021/05/04 07:30:39;;;;;;;11.23;5.12;;;;;;;16.63;44.42;100053.84;4369711;32;34180;-90
2021/05/04 07:33:08;;;;;;;9.07;4.87;;;;;;;15.74;42.14;100062.06;4365823;32;34433;-89
2021/05/04 07:35:35;;;;;;;5.18;4.05;;;;;;;15.55;43.22;100056.97;4361269;32;34145;-89
2021/05/04 07:38:03;;;;;;;7.40;4.85;;;;;;;15.68;42.91;100054.47;4338451;32;34979;-89
2021/05/04 07:40:31;;;;;;;6.55;4.28;;;;;;;15.51;41.61;100051.94;4363675;32;34428;-90
2021/05/04 07:42:59;;;;;;;6.75;4.40;;;;;;;15.69;41.98;100052.66;4352640;32;33563;-90
2021/05/04 07:45:27;;;;;;;11.10;4.95;;;;;;;16.00;42.30;100048.94;4342810;32;32737;-89
2021/05/04 07:47:58;;;;;;;6.10;5.03;;;;;;;16.04;42.72;100045.16;4363741;32;34251;-90
2021/05/04 07:50:26;;;;;;;5.85;4.35;;;;;;;15.95;41.77;100037.72;4363394;32;36462;-89
2021/05/04 07:52:56;;;;;;;5.28;4.32;;;;;;;16.28;41.96;100024.09;4349194;32;34193;-90
2021/05/04 07:55:26;;;;;;;8.52;4.90;;;;;;;16.99;40.55;100020.41;4362012;32;35751;-90
2021/05/04 07:57:53;;;;;;;4.70;3.78;;;;;;;16.93;40.09;100026.16;4351326;32;35711;-90
2021/05/04 08:00:22;;;;;;;4.78;3.08;;;;;;;16.85;38.52;100021.31;4369221;32;33490;-90
2021/05/04 08:03:12;;;;;;;3.37;2.30;;;;;;;16.79;38.46;100014.56;4362300;32;33321;-89
2021/05/04 08:05:40;;;;;;;4.57;1.92;;;;;;;17.09;36.73;100010.81;4367032;32;34260;-90
2021/05/04 08:08:29;;;;;;;2.90;1.83;;;;;;;17.07;36.33;100008.25;4352646;32;34546;-90
2021/05/04 08:10:57;;;;;;;2.15;1.62;;;;;;;17.05;37.05;100012.00;4356947;32;33582;-89
2021/05/04 08:13:25;;;;;;;2.80;1.75;;;;;;;17.00;36.67;100004.31;4352177;32;33115;-90
2021/05/04 08:15:53;;;;;;;6.12;1.60;;;;;;;16.90;37.71;100008.53;4353455;32;33757;-90
2021/05/04 08:18:21;;;;;;;4.82;1.83;;;;;;;16.58;37.84;100000.81;4364925;32;34565;-90
2021/05/04 08:21:04;;;;;;;;;;;;;;;16.66;37.67;99992.31;4350270;32;35296;-90
2021/05/04 08:23:32;;;;;;;1.92;1.65;;;;;;;17.02;37.37;99991.72;4330358;32;32015;-90
2021/05/04 08:26:01;;;;;;;2.17;1.45;;;;;;;17.72;37.50;99982.50;4363766;32;34111;-91
2021/05/04 08:28:32;;;;;;;1.87;1.60;;;;;;;17.22;37.65;99984.16;4364592;32;34514;-90
2021/05/04 08:31:20;;;;;;;2.40;1.48;;;;;;;17.67;36.59;99975.66;4396131;32;34786;-91
2021/05/04 08:34:01;;;;;;;3.97;1.45;;;;;;;17.57;34.82;99987.09;4374434;32;32858;-90
2021/05/04 08:36:38;;;;;;;2.53;1.35;;;;;;;17.76;34.71;99984.03;4384540;32;34150;-90
2021/05/04 08:39:05;;;;;;;4.68;1.70;;;;;;;17.78;35.61;99987.41;4385033;32;34647;-90
2021/05/04 08:41:35;;;;;;;2.85;1.20;;;;;;;17.77;36.05;99970.53;4385660;32;34128;-90
2021/05/04 08:44:03;;;;;;;2.85;1.15;;;;;;;18.55;34.23;99967.53;4375562;32;34633;-90
2021/05/04 08:46:34;;;;;;;1.98;1.10;;;;;;;18.54;33.92;99965.84;4379084;32;35334;-90
2021/05/04 08:49:04;;;;;;;2.45;1.50;;;;;;;18.72;34.20;99973.50;4388868;32;33798;-89
2021/05/04 08:51:51;;;;;;;0.85;0.85;;;;;;;17.98;34.79;99962.81;4376064;32;33106;-89
2021/05/04 08:54:19;;;;;;;2.22;1.30;;;;;;;18.03;36.74;99960.66;4377930;32;33603;-90
2021/05/04 08:57:03;;;;;;;1.37;1.05;;;;;;;18.32;34.32;99973.72;4364547;32;35166;-89
2021/05/04 09:00:09;;;;;;;;;;;;;;;18.96;33.76;99950.25;4388371;32;33543;-90
2021/05/04 09:03:00;;;;;;;2.55;1.30;;;;;;;19.37;33.38;99952.44;4386686;32;31543;-90
2021/05/04 09:06:30;;;;;;;2.37;1.20;;;;;;;19.74;32.61;99941.50;4369956;32;34045;-90
2021/05/04 09:08:58;;;;;;;1.73;1.25;;;;;;;19.53;32.90;99954.75;4370502;32;34500;-91
2021/05/04 09:22:34;;;;;;;1.52;1.17;;;;;;;19.23;29.17;99930.34;4377474;32;34490;-89
2021/05/04 09:25:02;;;;;;;1.73;0.90;;;;;;;19.37;29.40;99932.81;4402661;32;35026;-90
2021/05/04 09:27:30;;;;;;;2.72;1.40;;;;;;;19.46;29.35;99924.06;4377331;32;34180;-88
2021/05/04 09:29:59;;;;;;;6.32;1.40;;;;;;;19.12;30.03;99917.81;4375586;32;34828;-91
2021/05/04 09:32:46;;;;;;;2.05;1.00;;;;;;;19.44;29.51;99916.16;4356226;32;32598;-89
2021/05/04 09:35:13;;;;;;;2.58;1.48;;;;;;;19.92;29.41;99901.69;4376617;32;34498;-90
2021/05/04 09:37:44;;;;;;;3.08;1.08;;;;;;;19.78;29.15;99908.13;4389412;32;33938;-90
2021/05/04 09:40:18;;;;;;;1.27;0.65;;;;;;;19.79;29.34;99901.81;4363173;32;34876;-89
2021/05/04 09:43:01;;;;;;;2.05;0.98;;;;;;;19.62;29.15;99887.09;4376643;32;35168;-89
2021/05/04 09:45:29;;;;;;;1.90;1.23;;;;;;;19.85;29.50;99889.75;4385440;32;33383;-90
2021/05/04 09:48:37;;;;;;;3.10;1.10;;;;;;;19.92;29.49;99885.59;4378041;32;34170;-89
2021/05/04 09:51:16;;;;;;;1.60;1.30;;;;;;;20.31;27.63;99885.97;4387129;32;34131;-90
2021/05/04 09:53:59;;;;;;;2.42;1.40;;;;;;;19.99;28.23;99876.09;4377313;32;34578;-90
2021/05/04 09:56:34;;;;;;;2.53;1.50;;;;;;;19.76;28.98;99874.44;4390207;32;34381;-90
2021/05/04 09:59:46;;;;;;;1.70;1.42;;;;;;;20.41;28.23;99871.69;4399206;32;32975;-90
2021/05/04 10:02:17;;;;;;;2.20;1.30;;;;;;;20.64;28.92;99871.63;4367645;32;33989;-90
2021/05/04 10:05:18;;;;;;;3.80;1.87;;;;;;;20.77;29.26;99858.00;4381539;32;31474;-90
2021/05/04 10:07:48;;;;;;;2.87;1.42;;;;;;;20.71;28.43;99862.94;4383523;32;34340;-90
2021/05/04 10:10:17;;;;;;;1.73;1.42;;;;;;;21.04;28.23;99857.50;4376945;32;32849;-90
2021/05/04 10:13:18;;;;;;;3.00;2.00;;;;;;;21.38;27.06;99845.53;4399390;32;34464;-90
2021/05/04 10:16:21;;;;;;;2.45;1.95;;;;;;;21.21;28.61;99840.75;4361060;32;34237;-90
2021/05/04 10:19:09;;;;;;;2.22;1.67;;;;;;;21.21;29.18;99846.97;4371482;32;33871;-91
2021/05/04 10:21:59;;;;;;;2.53;1.95;;;;;;;20.73;28.68;99832.44;4373528;32;32252;-91
2021/05/04 10:24:58;;;;;;;1.45;1.33;;;;;;;20.69;29.84;99843.41;4359597;32;33817;-90
2021/05/04 10:28:01;;;;;;;1.73;1.45;;;;;;;21.26;27.93;99829.59;4317022;33;33862;-91
2021/05/04 10:30:36;;;;;;;2.42;1.27;;;;;;;20.97;26.57;99824.94;4316302;33;33386;-91
2021/05/04 10:33:39;;;;;;;1.77;1.67;;;;;;;21.33;27.66;99820.06;4384430;32;33012;-90
2021/05/04 10:36:32;;;;;;;3.55;1.60;;;;;;;22.00;27.75;99800.59;4360296;32;32380;-88
2021/05/04 10:39:01;;;;;;;2.67;2.45;;;;;;;21.48;28.77;99803.44;4356437;32;33069;-88
2021/05/04 10:41:28;;;;;;;4.32;1.92;;;;;;;21.13;28.25;99803.84;4368669;32;34836;-89
2021/05/04 10:44:02;;;;;;;4.22;1.60;;;;;;;21.13;28.12;99798.47;4357032;32;33344;-89
2021/05/04 10:46:39;;;;;;;1.75;1.65;;;;;;;21.33;28.29;99787.84;4367583;32;34010;-88
2021/05/04 10:49:09;;;;;;;4.07;2.20;;;;;;;21.11;28.00;99783.47;4365258;32;35869;-89
2021/05/04 10:51:48;;;;;;;3.37;2.28;;;;;;;21.05;27.47;99790.25;4347704;32;35632;-88
2021/05/04 10:54:22;;;;;;;7.47;2.25;;;;;;;21.40;28.03;99788.97;4335717;32;35092;-89
2021/05/04 10:56:58;;;;;;;2.55;1.50;;;;;;;21.32;28.11;99764.66;4349297;32;34421;-88
2021/05/04 10:59:26;;;;;;;2.33;1.70;;;;;;;21.51;28.14;99763.84;4358356;32;34069;-91
2021/05/04 11:02:07;;;;;;;2.42;1.40;;;;;;;21.68;28.93;99771.25;4347150;32;33946;-88
2021/05/04 11:04:39;;;;;;;2.78;1.98;;;;;;;21.64;28.22;99767.13;4371275;32;33718;-88
2021/05/04 11:07:07;;;;;;;3.03;1.48;;;;;;;21.07;27.31;99761.41;4368645;32;32637;-89
2021/05/04 11:09:39;;;;;;;3.10;1.60;;;;;;;21.41;28.41;99750.37;4367283;32;34732;-88
2021/05/04 11:12:08;;;;;;;3.35;1.85;;;;;;;21.61;27.42;99760.22;4356205;32;33693;-87
2021/05/04 11:14:39;;;;;;;2.00;1.70;;;;;;;21.93;27.85;99745.66;4372920;32;33904;-88
2021/05/04 11:17:10;;;;;;;6.22;1.55;;;;;;;21.44;27.63;99748.28;4371176;32;34700;-88
2021/05/04 11:19:41;;;;;;;4.00;1.60;;;;;;;21.94;27.34;99740.16;4372655;32;33930;-88
2021/05/04 11:22:13;;;;;;;3.37;1.27;;;;;;;22.06;27.97;99737.31;4370784;32;34192;-88
2021/05/04 11:24:48;;;;;;;2.03;1.70;;;;;;;22.71;26.81;99728.47;4355334;32;35062;-88
2021/05/04 11:27:28;;;;;;;3.12;1.30;;;;;;;22.66;24.69;99730.75;4360273;32;34068;-88
2021/05/04 11:29:58;;;;;;;1.45;1.20;;;;;;;22.86;24.54;99714.53;4366807;32;32142;-90
2021/05/04 11:32:44;;;;;;;1.90;1.40;;;;;;;22.52;24.48;99717.75;4354772;32;33881;-89
2021/05/04 11:35:14;;;;;;;4.12;1.50;;;;;;;22.32;25.72;99721.50;4370839;32;33875;-88
2021/05/04 11:37:59;;;;;;;2.87;1.50;;;;;;;22.47;24.85;99712.81;4361102;32;34457;-89
2021/05/04 11:40:28;;;;;;;2.00;1.52;;;;;;;22.35;24.13;99705.03;4357317;32;34447;-89
2021/05/04 11:42:59;;;;;;;1.92;1.17;;;;;;;22.40;26.19;99730.50;4374642;32;35464;-89
2021/05/04 11:45:31;;;;;;;3.85;1.35;;;;;;;21.82;26.59;99709.03;4359741;32;32116;-89
2021/05/04 11:48:01;;;;;;;5.80;1.55;;;;;;;22.65;27.09;99710.22;4340370;32;34449;-89
2021/05/04 11:50:37;;;;;;;2.15;1.30;;;;;;;22.66;23.46;99695.78;4358757;32;35546;-90
2021/05/04 11:53:14;;;;;;;1.30;1.08;;;;;;;22.43;24.18;99694.41;4346903;32;35474;-89
2021/05/04 11:55:51;;;;;;;3.90;1.12;;;;;;;22.61;24.08;99698.06;4371041;32;34196;-89
2021/05/04 11:58:23;;;;;;;2.65;1.58;;;;;;;22.30;24.17;99685.81;4357450;32;34571;-88
2021/05/04 12:01:03;;;;;;;3.67;1.85;;;;;;;22.98;23.36;99675.69;4356051;32;33440;-88
2021/05/04 12:03:32;;;;;;;2.83;1.70;;;;;;;23.37;24.16;99665.53;4359745;32;33443;-88
2021/05/04 12:06:04;;;;;;;3.87;1.60;;;;;;;22.75;24.25;99675.19;4358775;32;34668;-89
2021/05/04 12:08:32;;;;;;;2.60;1.83;;;;;;;22.12;25.38;99669.56;4357355;32;33047;-88